Time;durP1;ratioP1;P1;durP2;ratioP2;P2;SDS_P1;SDS_P2;PMS_P1;PMS_P2;Temp;Humidity;BMP_temperature;BMP_pressure;BME280_temperature;BME280_humidity;BME280_pressure;Samples;Min_cycle;Max_cycle;Signal;HPM_P1;HPM_P2
2021/05/01 00:01:48;;;;;;;18.13;8.63;;;;;;;9.08;64.28;101357.78;4953397;28;20098;-55
2021/05/01 00:04:27;;;;;;;12.70;7.40;;;;;;;9.06;63.77;101360.72;4953232;28;20051;-53
2021/05/01 00:06:54;;;;;;;15.02;7.32;;;;;;;9.05;63.75;101363.72;4953037;28;20039;-56
2021/05/01 00:09:22;;;;;;;15.30;7.07;;;;;;;9.01;63.66;101355.19;4953397;28;20047;-56
2021/05/01 00:11:49;;;;;;;15.68;7.32;;;;;;;8.98;64.48;101357.59;4952948;28;20039;-52
2021/05/01 00:14:25;;;;;;;13.40;7.47;;;;;;;8.96;63.99;101355.13;4954050;28;20062;-53
2021/05/01 00:16:54;;;;;;;15.70;7.45;;;;;;;8.98;64.36;101357.59;4955917;29;20047;-55
2021/05/01 00:19:21;;;;;;;12.82;6.80;;;;;;;8.99;64.12;101345.66;4956539;28;20050;-54
2021/05/01 00:21:49;;;;;;;13.85;7.07;;;;;;;8.98;64.42;101346.72;4956892;28;20047;-53
2021/05/01 00:24:16;;;;;;;15.55;7.07;;;;;;;8.92;64.49;101349.34;4956628;28;20050;-54
2021/05/01 00:26:43;;;;;;;13.45;6.60;;;;;;;8.89;64.12;101344.38;4956478;28;20043;-52
2021/05/01 00:29:12;;;;;;;13.52;6.82;;;;;;;8.88;64.25;101342.75;4956736;28;20397;-53
2021/05/01 00:31:39;;;;;;;14.73;6.78;;;;;;;8.87;64.41;101343.81;4956599;28;20533;-53
2021/05/01 00:34:14;;;;;;;13.73;7.38;;;;;;;8.82;64.48;101338.28;4955877;28;20047;-56
2021/05/01 00:36:41;;;;;;;10.90;7.00;;;;;;;8.78;64.85;101337.13;4956389;28;20428;-53
2021/05/01 00:39:09;;;;;;;15.00;6.85;;;;;;;8.74;64.18;101338.69;4956073;28;20470;-53
2021/05/01 00:41:36;;;;;;;14.50;7.22;;;;;;;8.71;64.66;101336.47;4954911;29;20043;-52
2021/05/01 00:44:08;;;;;;;12.05;6.72;;;;;;;8.67;64.14;101330.66;4954883;29;20130;-56
2021/05/01 00:46:46;;;;;;;18.50;8.30;;;;;;;8.65;64.98;101331.97;4955103;29;20074;-55
2021/05/01 00:49:14;;;;;;;14.10;6.50;;;;;;;8.62;64.63;101333.28;4955699;28;20151;-55
2021/05/01 00:51:41;;;;;;;13.43;6.70;;;;;;;8.61;64.44;101328.09;4955897;28;20418;-54
2021/05/01 00:54:08;;;;;;;12.32;6.30;;;;;;;8.58;65.03;101332.13;4955920;28;20067;-50
2021/05/01 00:56:36;;;;;;;12.52;6.50;;;;;;;8.58;64.54;101332.13;4955787;28;20455;-52
2021/05/01 00:59:03;;;;;;;13.13;6.57;;;;;;;8.56;64.34;101323.38;4956052;28;20102;-54
2021/05/01 01:01:31;;;;;;;11.70;6.93;;;;;;;8.57;64.41;101330.47;4956071;28;20047;-50
2021/05/01 01:03:58;;;;;;;11.88;6.20;;;;;;;8.55;64.25;101326.38;4955311;28;20047;-53
2021/05/01 01:06:25;;;;;;;13.55;6.80;;;;;;;8.53;64.11;101330.13;4970829;28;20073;-53
2021/05/01 01:08:52;;;;;;;10.77;5.72;;;;;;;8.49;64.55;101328.97;4954391;29;20039;-52
2021/05/01 01:11:20;;;;;;;12.50;6.15;;;;;;;8.48;64.36;101323.78;4955482;28;20078;-52
2021/05/01 01:14:09;;;;;;;11.85;6.40;;;;;;;8.45;64.16;101321.56;4955232;28;20048;-53
2021/05/01 01:16:36;;;;;;;12.98;6.57;;;;;;;8.47;63.79;101330.28;4955969;28;20383;-52
2021/05/01 01:19:03;;;;;;;14.38;6.65;;;;;;;8.45;64.30;101330.53;4954968;28;20051;-52
2021/05/01 01:21:37;;;;;;;14.00;6.45;;;;;;;8.43;64.39;101334.53;4955721;28;20047;-52
2021/05/01 01:24:05;;;;;;;13.30;6.38;;;;;;;8.41;63.54;101321.19;4955309;28;20054;-54
2021/05/01 01:26:35;;;;;;;11.57;6.65;;;;;;;8.41;63.37;101329.34;4955728;28;20446;-52
2021/05/01 01:29:03;;;;;;;12.75;5.90;;;;;;;8.39;63.68;101319.75;4955304;28;20039;-53
2021/05/01 01:31:30;;;;;;;14.52;6.53;;;;;;;8.37;63.84;101325.44;4954252;29;20067;-50
2021/05/01 01:33:58;;;;;;;11.18;6.45;;;;;;;8.33;63.76;101324.28;4954956;28;20043;-53
2021/05/01 01:36:25;;;;;;;12.52;6.47;;;;;;;8.34;64.13;101315.06;4970092;28;20106;-53
2021/05/01 01:38:52;;;;;;;12.85;6.47;;;;;;;8.34;63.36;101325.91;4955518;28;20047;-54
2021/05/01 01:41:20;;;;;;;11.95;6.35;;;;;;;8.33;63.22;101329.72;4954637;28;20502;-55
2021/05/01 01:43:47;;;;;;;10.38;6.13;;;;;;;8.28;63.24;101321.47;4955172;28;20055;-53
2021/05/01 01:46:14;;;;;;;11.35;6.30;;;;;;;8.20;63.62;101319.94;4954993;28;20047;-52
2021/05/01 01:48:42;;;;;;;11.00;6.47;;;;;;;8.15;64.32;101317.09;4954659;28;20043;-53
2021/05/01 01:51:09;;;;;;;13.27;7.00;;;;;;;8.11;63.63;101318.66;4955047;28;20059;-54
2021/05/01 01:53:36;;;;;;;13.45;6.55;;;;;;;8.09;64.10;101313.47;4954868;28;20815;-52
2021/05/01 01:56:04;;;;;;;13.40;7.32;;;;;;;8.07;64.17;101315.59;4955208;28;20055;-52
2021/05/01 01:58:31;;;;;;;12.40;6.88;;;;;;;8.05;64.20;101314.19;4954556;28;20051;-53
2021/05/01 02:00:59;;;;;;;11.57;6.28;;;;;;;8.04;64.39;101316.09;4954797;28;20055;-54
2021/05/01 02:03:27;;;;;;;15.23;7.50;;;;;;;8.04;64.30;101316.09;4954438;28;20055;-53
2021/05/01 02:05:54;;;;;;;14.13;7.53;;;;;;;8.07;64.24;101309.34;4954829;28;20040;-53
2021/05/01 02:08:21;;;;;;;11.95;6.53;;;;;;;8.07;64.33;101312.06;4954692;28;20051;-52
2021/05/01 02:10:48;;;;;;;11.27;6.97;;;;;;;8.02;64.33;101312.78;4954549;28;20089;-53
2021/05/01 02:13:19;;;;;;;11.98;7.00;;;;;;;8.02;64.18;101306.53;4954318;28;20565;-53
2021/05/01 02:15:47;;;;;;;13.40;7.25;;;;;;;8.03;64.54;101311.72;4951800;28;20043;-52
2021/05/01 02:18:14;;;;;;;14.15;7.53;;;;;;;8.02;63.48;101309.25;4954389;28;20063;-51
2021/05/01 02:20:41;;;;;;;13.57;7.57;;;;;;;8.01;64.11;101313.84;4954053;29;20051;-52
2021/05/01 02:23:09;;;;;;;12.50;7.88;;;;;;;8.00;63.60;101308.66;4954783;28;20051;-52
2021/05/01 02:25:42;;;;;;;14.05;7.60;;;;;;;7.97;64.39;101309.97;4954458;28;20043;-52
2021/05/01 02:28:09;;;;;;;13.23;7.65;;;;;;;7.96;64.10;101313.75;4969808;28;20039;-56
2021/05/01 02:30:36;;;;;;;14.98;7.40;;;;;;;7.96;64.80;101313.75;4956551;29;20047;-56
2021/05/01 02:33:03;;;;;;;14.70;8.60;;;;;;;7.98;63.93;101318.91;4958906;28;20032;-57
2021/05/01 02:35:33;;;;;;;14.45;8.48;;;;;;;7.98;64.48;101317.03;4959059;28;20103;-58
2021/05/01 02:38:00;;;;;;;18.17;9.45;;;;;;;8.03;64.54;101309.00;4954933;28;20042;-50
2021/05/01 02:40:30;;;;;;;15.27;8.48;;;;;;;8.06;63.66;101303.09;4954309;28;20051;-53
2021/05/01 02:43:30;;;;;;;15.75;9.55;;;;;;;8.03;63.56;101314.44;4954203;28;20043;-52
2021/05/01 02:45:57;;;;;;;17.00;9.57;;;;;;;8.01;64.03;101311.13;4953652;28;20073;-51
2021/05/01 02:48:24;;;;;;;15.80;9.38;;;;;;;7.97;64.45;101314.56;4954187;29;20070;-53
2021/05/01 02:50:52;;;;;;;16.30;10.38;;;;;;;7.93;64.62;101308.78;4954454;28;20126;-56
2021/05/01 02:53:19;;;;;;;16.35;10.73;;;;;;;7.88;64.41;101295.09;4955243;28;20051;-57
2021/05/01 02:55:48;;;;;;;15.77;9.98;;;;;;;7.86;64.76;101305.38;4955168;28;20051;-56
2021/05/01 02:58:15;;;;;;;17.67;10.57;;;;;;;7.84;64.24;101304.78;4954113;28;20043;-55
2021/05/01 03:00:45;;;;;;;14.75;9.77;;;;;;;7.82;65.35;101298.78;4953660;28;20071;-57
2021/05/01 03:03:12;;;;;;;17.98;10.60;;;;;;;7.83;64.64;101297.72;4954002;29;20043;-57
2021/05/01 03:05:39;;;;;;;15.93;10.95;;;;;;;7.81;64.42;101299.81;4954314;28;20043;-56
2021/05/01 03:08:06;;;;;;;17.45;11.07;;;;;;;7.80;65.24;101303.63;4954731;28;20043;-57
2021/05/01 03:10:33;;;;;;;20.13;11.23;;;;;;;7.80;64.59;101296.28;4953930;28;20047;-56
2021/05/01 03:13:01;;;;;;;17.13;11.43;;;;;;;7.73;65.22;101292.06;4940652;28;20586;-56
2021/05/01 03:15:28;;;;;;;18.65;11.40;;;;;;;7.71;64.88;101291.47;4952149;29;20054;-54
2021/05/01 03:17:55;;;;;;;19.25;11.82;;;;;;;7.71;64.86;101289.59;4968671;28;20051;-53
2021/05/01 03:20:23;;;;;;;17.73;11.80;;;;;;;7.69;65.33;101292.53;4953956;28;20043;-51
2021/05/01 03:22:50;;;;;;;18.80;11.95;;;;;;;7.73;65.63;101294.78;4954504;28;20058;-55
2021/05/01 03:25:18;;;;;;;16.38;11.25;;;;;;;7.75;65.22;101298.09;4954433;28;20094;-56
2021/05/01 03:27:46;;;;;;;17.30;11.25;;;;;;;7.78;65.25;101294.88;4954398;28;20450;-54
2021/05/01 03:30:17;;;;;;;21.25;12.55;;;;;;;7.82;64.33;101290.66;4953915;28;20050;-55
2021/05/01 03:32:45;;;;;;;20.10;12.30;;;;;;;7.78;64.47;101284.03;4941733;29;20066;-52
2021/05/01 03:35:14;;;;;;;19.00;12.65;;;;;;;7.72;64.90;101283.13;4955023;28;20040;-52
2021/05/01 03:37:42;;;;;;;19.63;12.95;;;;;;;7.72;65.09;101284.97;4954734;28;20059;-54
2021/05/01 03:40:10;;;;;;;20.30;13.00;;;;;;;7.75;65.75;101287.22;4953692;28;20050;-54
2021/05/01 03:42:38;;;;;;;20.02;12.77;;;;;;;7.75;65.49;101279.09;4953234;28;20116;-55
2021/05/01 03:45:06;;;;;;;21.45;13.32;;;;;;;7.72;65.52;101285.81;4953562;28;20406;-51
2021/05/01 03:47:33;;;;;;;18.58;13.13;;;;;;;7.72;65.29;101284.97;4953606;28;20043;-55
2021/05/01 03:50:01;;;;;;;20.02;14.30;;;;;;;7.69;65.47;101287.09;4955451;28;20052;-53
2021/05/01 03:52:29;;;;;;;20.80;14.07;;;;;;;7.67;65.64;101283.81;4957341;28;20102;-54
2021/05/01 03:54:56;;;;;;;19.98;13.75;;;;;;;7.65;65.60;101285.13;4956974;28;20125;-54
2021/05/01 03:57:37;;;;;;;20.33;13.82;;;;;;;7.66;64.98;101287.56;4956509;28;20055;-52
2021/05/01 04:00:04;;;;;;;18.52;13.60;;;;;;;7.62;65.72;101286.41;4957310;28;20058;-53
2021/05/01 04:02:33;;;;;;;21.63;13.95;;;;;;;7.62;64.90;101285.56;4957267;28;20049;-54
2021/05/01 04:05:00;;;;;;;19.15;12.77;;;;;;;7.60;65.78;101287.69;4957289;28;20047;-53
2021/05/01 04:07:27;;;;;;;17.83;12.85;;;;;;;7.60;65.85;101287.69;4956765;28;20462;-55
2021/05/01 04:09:54;;;;;;;20.85;13.48;;;;;;;7.59;65.63;101281.44;4956871;28;20039;-52
2021/05/01 04:12:23;;;;;;;18.55;14.02;;;;;;;7.59;65.69;101286.88;4956446;28;20058;-54
2021/05/01 04:14:50;;;;;;;18.77;12.82;;;;;;;7.59;65.23;101286.88;4956747;28;20506;-55
2021/05/01 04:17:18;;;;;;;19.45;13.48;;;;;;;7.57;65.94;101288.19;4956932;28;20106;-53
2021/05/01 04:19:47;;;;;;;19.75;13.50;;;;;;;7.54;65.55;101289.47;4956662;28;20043;-53
2021/05/01 04:22:20;;;;;;;21.25;14.00;;;;;;;7.52;65.70;101279.94;4955675;29;20043;-53
2021/05/01 04:24:48;;;;;;;20.30;14.10;;;;;;;7.49;65.57;101289.34;4956725;28;20043;-52
2021/05/01 04:27:15;;;;;;;18.98;13.85;;;;;;;7.47;65.71;101291.47;4955860;29;20074;-54
2021/05/01 04:29:42;;;;;;;22.75;13.50;;;;;;;7.45;65.79;101285.47;4971612;28;20112;-52
2021/05/01 04:32:10;;;;;;;19.80;12.90;;;;;;;7.42;65.67;101286.75;4956374;28;20414;-52
2021/05/01 04:34:37;;;;;;;18.98;13.50;;;;;;;7.42;65.70;101285.94;4956417;28;20047;-55
2021/05/01 04:37:04;;;;;;;21.63;13.27;;;;;;;7.40;65.38;101288.06;4956443;28;20043;-51
2021/05/01 04:39:32;;;;;;;21.70;13.68;;;;;;;7.40;65.83;101288.06;4956419;28;20047;-54
2021/05/01 04:41:59;;;;;;;19.90;13.05;;;;;;;7.41;65.20;101292.44;4956175;28;20050;-55
2021/05/01 04:44:27;;;;;;;17.42;12.00;;;;;;;7.39;65.92;101294.56;4956018;28;20067;-52
2021/05/01 04:46:54;;;;;;;17.98;12.18;;;;;;;7.40;65.85;101298.91;4956460;28;20056;-55
2021/05/01 04:49:22;;;;;;;17.98;12.30;;;;;;;7.42;65.20;101291.38;4956082;28;20133;-54
2021/05/01 04:51:49;;;;;;;17.38;12.32;;;;;;;7.44;65.24;101300.09;4956436;28;20055;-51
2021/05/01 04:54:17;;;;;;;17.95;12.23;;;;;;;7.42;65.00;101297.59;4956182;28;20047;-52
2021/05/01 04:56:44;;;;;;;21.73;12.82;;;;;;;7.41;64.87;101297.84;4955596;28;20043;-54
2021/05/01 04:59:11;;;;;;;16.63;12.55;;;;;;;7.41;65.19;101306.81;4955721;28;20043;-55
2021/05/01 05:01:38;;;;;;;17.90;11.60;;;;;;;7.39;64.94;101305.41;4955611;28;20503;-53
2021/05/01 05:04:05;;;;;;;19.70;13.13;;;;;;;7.39;64.94;101302.69;4956145;28;20047;-53
2021/05/01 05:06:33;;;;;;;17.27;12.13;;;;;;;7.38;64.84;101306.44;4956020;28;20051;-53
2021/05/01 05:09:02;;;;;;;21.75;13.00;;;;;;;7.38;65.24;101311.84;4955790;28;20195;-50
2021/05/01 05:11:29;;;;;;;18.38;12.57;;;;;;;7.39;65.12;101308.09;4955549;28;20039;-53
2021/05/01 05:13:56;;;;;;;18.90;13.13;;;;;;;7.38;65.43;101311.84;4955526;28;20054;-52
2021/05/01 05:16:23;;;;;;;19.83;13.07;;;;;;;7.39;65.62;101308.09;4955183;28;20050;-50
2021/05/01 05:18:51;;;;;;;18.73;12.82;;;;;;;7.40;65.20;101315.16;4954626;28;20514;-52
2021/05/01 05:21:18;;;;;;;18.23;12.18;;;;;;;7.37;65.32;101315.66;4955418;28;20051;-52
2021/05/01 05:23:46;;;;;;;19.67;12.75;;;;;;;7.30;65.34;101321.16;4955197;28;20450;-55
2021/05/01 05:26:13;;;;;;;18.80;12.23;;;;;;;7.32;65.43;101331.78;4955530;28;20513;-51
2021/05/01 05:28:40;;;;;;;20.60;12.45;;;;;;;7.34;65.65;101326.97;4955352;28;20078;-55
2021/05/01 05:31:07;;;;;;;18.80;12.27;;;;;;;7.36;65.24;101335.66;4955606;28;20122;-54
2021/05/01 05:33:35;;;;;;;19.20;12.27;;;;;;;7.40;65.77;101334.13;4955041;28;20039;-52
2021/05/01 05:36:02;;;;;;;16.40;11.65;;;;;;;7.42;65.53;101338.28;4955135;28;20450;-51
2021/05/01 05:38:29;;;;;;;20.85;12.52;;;;;;;7.40;65.51;101334.13;4955127;28;20106;-53
2021/05/01 05:40:56;;;;;;;15.43;10.40;;;;;;;7.38;65.60;101339.78;4954943;28;20043;-52
2021/05/01 05:43:23;;;;;;;15.45;10.43;;;;;;;7.37;66.14;101342.75;4955085;28;20047;-51
2021/05/01 05:45:51;;;;;;;17.83;11.25;;;;;;;7.38;65.51;101338.97;4955014;28;20495;-52
2021/05/01 05:48:18;;;;;;;10.73;8.05;;;;;;;7.45;65.78;101347.81;4954930;28;20053;-52
2021/05/01 05:50:45;;;;;;;14.50;8.25;;;;;;;7.47;66.35;101337.56;4954786;28;20051;-52
2021/05/01 05:53:12;;;;;;;15.38;9.55;;;;;;;7.54;65.90;101342.88;4953643;28;20047;-51
2021/05/01 05:55:39;;;;;;;14.43;10.02;;;;;;;7.57;65.86;101343.22;4954961;29;20470;-52
2021/05/01 05:58:07;;;;;;;14.07;9.15;;;;;;;7.64;66.92;101346.66;4954859;28;20079;-52
2021/05/01 06:00:34;;;;;;;12.75;7.65;;;;;;;7.64;66.38;101341.22;4954018;29;20062;-51
2021/05/01 06:03:01;;;;;;;15.93;10.18;;;;;;;7.61;66.45;101344.41;4954585;28;20545;-53
2021/05/01 06:05:29;;;;;;;16.48;10.45;;;;;;;7.58;65.78;101336.75;4953717;29;20510;-52
2021/05/01 06:08:01;;;;;;;14.43;9.73;;;;;;;7.62;66.71;101343.34;4954189;28;20055;-53
2021/05/01 06:10:29;;;;;;;13.95;9.07;;;;;;;7.62;66.34;101339.81;4954707;28;20502;-52
2021/05/01 06:12:56;;;;;;;16.45;10.43;;;;;;;7.60;66.64;101342.78;4952218;28;20059;-52
2021/05/01 06:15:24;;;;;;;19.02;10.27;;;;;;;7.60;66.46;101341.94;4954590;28;20087;-53
2021/05/01 06:17:53;;;;;;;16.23;8.98;;;;;;;7.61;66.63;101343.59;4953153;29;20455;-52
2021/05/01 06:20:20;;;;;;;12.60;8.25;;;;;;;7.60;67.26;101342.78;4949929;29;20059;-55
2021/05/01 06:22:51;;;;;;;13.38;8.65;;;;;;;7.62;66.81;101340.63;4947540;29;20050;-54
2021/05/01 06:25:18;;;;;;;16.02;8.90;;;;;;;7.62;67.04;101335.22;4953144;29;20051;-51
2021/05/01 06:27:45;;;;;;;16.65;8.68;;;;;;;7.63;67.05;101336.06;4954503;29;20130;-53
2021/05/01 06:30:13;;;;;;;15.88;8.38;;;;;;;7.65;67.49;101337.47;4954401;28;20043;-53
2021/05/01 06:32:46;;;;;;;20.33;10.45;;;;;;;7.60;67.67;101337.34;4954432;28;20047;-52
2021/05/01 06:35:13;;;;;;;17.73;9.90;;;;;;;7.51;67.96;101337.94;4954357;28;20047;-53
2021/05/01 06:37:41;;;;;;;16.08;10.10;;;;;;;7.50;67.90;101337.09;4953694;29;20532;-55
2021/05/01 06:40:11;;;;;;;12.73;9.45;;;;;;;7.52;67.93;101334.97;4954098;28;20517;-52
2021/05/01 06:42:43;;;;;;;14.75;9.73;;;;;;;7.56;68.23;101336.16;4953026;29;20047;-51
2021/05/01 06:45:19;;;;;;;16.00;9.05;;;;;;;7.60;67.88;101337.34;4954364;28;20502;-55
2021/05/01 06:47:47;;;;;;;;;;;;;;;7.65;68.10;101334.75;4953448;29;20039;-51
2021/05/01 06:50:15;;;;;;;15.75;9.93;;;;;;;7.68;67.95;101339.69;4954279;28;19969;-51
2021/05/01 06:52:46;;;;;;;17.20;10.15;;;;;;;7.71;68.11;101338.41;4953433;28;20113;-55
2021/05/01 06:55:18;;;;;;;16.88;8.95;;;;;;;7.74;67.89;101331.69;4954000;28;20039;-52
2021/05/01 06:57:50;;;;;;;15.73;8.60;;;;;;;7.74;67.62;101332.50;4953931;28;20509;-53
2021/05/01 07:00:21;;;;;;;17.58;8.63;;;;;;;7.73;67.51;101325.44;4954116;28;20043;-54
2021/05/01 07:02:50;;;;;;;15.85;8.50;;;;;;;7.75;67.79;101331.44;4953888;28;20043;-52
2021/05/01 07:05:19;;;;;;;18.20;8.25;;;;;;;7.78;67.11;101330.16;4953889;28;20411;-52
2021/05/01 07:07:56;;;;;;;14.20;7.50;;;;;;;7.81;67.86;101332.38;4952514;28;20074;-54
2021/05/01 07:10:26;;;;;;;14.38;6.97;;;;;;;7.84;67.27;101326.47;4950442;28;20081;-51
2021/05/01 07:13:04;;;;;;;12.30;6.43;;;;;;;7.88;65.67;101330.38;4953019;28;20063;-50
2021/05/01 07:15:32;;;;;;;16.63;6.55;;;;;;;7.79;65.35;101327.22;4952008;29;20419;-53
2021/05/01 07:17:59;;;;;;;11.85;6.20;;;;;;;7.76;66.23;101327.66;4953373;28;20051;-52
2021/05/01 07:20:26;;;;;;;13.43;6.13;;;;;;;7.84;65.25;101327.31;4967866;28;20047;-51
2021/05/01 07:22:54;;;;;;;12.55;6.38;;;;;;;7.89;65.60;101329.31;4953402;28;20057;-52
2021/05/01 07:25:26;;;;;;;12.15;5.45;;;;;;;7.90;63.75;101330.97;4953875;29;20415;-55
2021/05/01 07:27:56;;;;;;;13.80;5.57;;;;;;;7.91;63.88;101327.19;4957494;28;20040;-54
2021/05/01 07:30:26;;;;;;;11.70;5.10;;;;;;;7.97;64.16;101320.00;4957362;28;20067;-53
2021/05/01 07:33:16;;;;;;;9.80;5.85;;;;;;;7.97;63.82;101336.28;4957484;28;20047;-55
2021/05/01 07:35:48;;;;;;;10.63;4.80;;;;;;;8.00;64.44;101331.19;4956746;28;20494;-54
2021/05/01 07:38:16;;;;;;;12.05;5.28;;;;;;;8.09;61.41;101346.03;4956122;29;20410;-53
2021/05/01 07:40:43;;;;;;;12.55;4.95;;;;;;;8.06;62.26;101332.13;4971671;28;20047;-53
2021/05/01 07:43:16;;;;;;;10.77;4.97;;;;;;;8.11;62.34;101332.25;4956948;28;20431;-53
2021/05/01 07:45:47;;;;;;;10.88;5.30;;;;;;;8.17;61.78;101336.69;4956724;28;20445;-56
2021/05/01 07:48:15;;;;;;;11.82;5.47;;;;;;;8.22;62.21;101335.97;4957047;28;20110;-53
2021/05/01 07:50:43;;;;;;;12.10;5.35;;;;;;;8.24;61.16;101340.09;4956609;28;20050;-54
2021/05/01 07:53:11;;;;;;;12.30;6.18;;;;;;;8.23;61.46;101340.38;4957324;28;20039;-54
2021/05/01 07:55:40;;;;;;;11.35;4.68;;;;;;;8.23;61.36;101343.91;4955646;29;20126;-56
2021/05/01 07:58:07;;;;;;;13.07;5.20;;;;;;;8.31;61.85;101342.69;4956640;28;20081;-56
2021/05/01 08:00:34;;;;;;;11.82;6.07;;;;;;;8.26;60.93;101339.88;4955736;29;20548;-54
2021/05/01 08:03:02;;;;;;;9.52;5.30;;;;;;;8.28;61.04;101348.59;4956518;28;20410;-51
2021/05/01 08:05:30;;;;;;;10.27;4.88;;;;;;;8.31;60.78;101350.84;4956147;28;20102;-54
2021/05/01 08:07:59;;;;;;;12.43;5.13;;;;;;;8.31;59.69;101345.41;4955598;29;20047;-55
2021/05/01 08:10:40;;;;;;;10.48;4.68;;;;;;;8.35;59.17;101343.88;4956363;28;20379;-56
2021/05/01 08:13:07;;;;;;;11.68;4.95;;;;;;;8.37;59.85;101339.03;4956043;28;20102;-55
2021/05/01 08:15:41;;;;;;;10.00;4.90;;;;;;;8.38;60.44;101343.38;4954509;28;20055;-54
2021/05/01 08:18:09;;;;;;;12.85;5.38;;;;;;;8.39;59.49;101342.31;4956065;28;20043;-54
2021/05/01 08:20:37;;;;;;;12.38;5.22;;;;;;;8.43;59.33;101346.22;4956439;28;20071;-55
2021/05/01 08:23:05;;;;;;;9.57;4.80;;;;;;;8.39;58.71;101345.03;4971543;28;20069;-52
2021/05/01 08:25:32;;;;;;;13.93;5.93;;;;;;;8.36;58.94;101340.06;4955006;29;20502;-53
2021/05/01 08:28:00;;;;;;;15.70;5.53;;;;;;;8.39;58.53;101330.63;4956352;29;20410;-55
2021/05/01 08:30:27;;;;;;;11.68;5.28;;;;;;;8.47;59.15;101331.09;4956490;28;20054;-54
2021/05/01 08:32:54;;;;;;;11.00;5.50;;;;;;;8.55;58.10;101329.06;4956028;28;20590;-52
2021/05/01 08:35:22;;;;;;;12.13;5.82;;;;;;;8.58;56.83;101331.31;4955338;28;20054;-51
2021/05/01 08:37:49;;;;;;;11.73;5.43;;;;;;;8.57;58.11;101329.66;4956526;29;20051;-52
2021/05/01 08:40:33;;;;;;;13.43;5.90;;;;;;;8.57;57.67;101332.38;4955403;28;20055;-54
2021/05/01 08:43:01;;;;;;;13.90;5.22;;;;;;;8.60;56.83;101331.88;4956175;28;20047;-51
2021/05/01 08:45:29;;;;;;;12.00;5.25;;;;;;;8.61;56.77;101328.09;4954552;29;20410;-53
2021/05/01 08:47:56;;;;;;;12.02;5.05;;;;;;;8.70;56.17;101329.34;4955874;28;20036;-52
2021/05/01 08:50:27;;;;;;;11.38;5.50;;;;;;;8.78;56.12;101320.84;4954830;29;20047;-53
2021/05/01 08:52:54;;;;;;;11.15;5.40;;;;;;;8.87;57.00;101307.66;4956070;28;20051;-53
2021/05/01 08:55:22;;;;;;;11.02;5.50;;;;;;;8.93;57.19;101312.94;4955641;28;20074;-53
2021/05/01 08:57:49;;;;;;;12.57;6.07;;;;;;;8.97;54.41;101318.69;4955547;28;20090;-53
2021/05/01 09:00:17;;;;;;;11.05;5.50;;;;;;;8.96;54.94;101319.78;4954756;28;20073;-52
2021/05/01 09:02:45;;;;;;;11.05;5.40;;;;;;;8.95;54.74;101313.53;4955745;28;20047;-52
2021/05/01 09:05:13;;;;;;;11.23;5.35;;;;;;;8.98;55.48;101314.13;4955119;29;20110;-55
2021/05/01 09:07:43;;;;;;;11.40;5.70;;;;;;;9.05;56.44;101314.78;4956103;28;20082;-56
2021/05/01 09:10:11;;;;;;;11.80;6.28;;;;;;;9.02;56.72;101315.25;4955923;28;20035;-55
2021/05/01 09:12:47;;;;;;;12.68;6.25;;;;;;;8.98;55.90;101320.38;4956372;28;20039;-55
2021/05/01 09:15:31;;;;;;;9.27;4.53;;;;;;;8.92;54.67;101316.75;4943355;29;20478;-56
2021/05/01 09:18:05;;;;;;;13.63;4.60;;;;;;;8.89;54.36;101316.41;4955627;28;20048;-53
2021/05/01 09:20:33;;;;;;;9.20;4.28;;;;;;;8.86;54.25;101315.00;4955448;28;20059;-52
2021/05/01 09:23:12;;;;;;;9.80;5.10;;;;;;;8.92;54.08;101311.31;4955676;28;20059;-53
2021/05/01 09:25:53;;;;;;;8.07;4.22;;;;;;;9.04;52.65;101316.66;4958206;28;20062;-54
2021/05/01 09:28:22;;;;;;;9.48;4.38;;;;;;;9.13;52.30;101317.91;4959213;28;20462;-56
2021/05/01 09:31:24;;;;;;;9.85;5.00;;;;;;;9.22;52.70;101318.31;4958499;28;20059;-56
2021/05/01 09:33:52;;;;;;;12.88;4.93;;;;;;;9.20;52.54;101323.19;4904478;29;20091;-56
2021/05/01 09:36:21;;;;;;;9.77;4.35;;;;;;;9.18;51.94;101319.88;4915359;29;20112;-52
2021/05/01 09:38:49;;;;;;;11.30;4.20;;;;;;;9.18;52.36;101331.56;4914676;29;20112;-54
2021/05/01 09:41:21;;;;;;;7.82;3.97;;;;;;;9.27;52.67;101328.47;4914150;29;20598;-56
2021/05/01 09:44:20;;;;;;;9.48;4.60;;;;;;;9.35;51.05;101322.59;4914937;29;20048;-52
2021/05/01 09:46:50;;;;;;;9.95;4.25;;;;;;;9.39;50.21;101316.44;4858207;29;20053;-53
2021/05/01 09:49:24;;;;;;;11.02;4.70;;;;;;;9.39;48.31;101316.44;4858678;29;20049;-55
2021/05/01 09:51:53;;;;;;;8.60;4.32;;;;;;;9.39;48.54;101318.31;4858304;29;20041;-52
2021/05/01 09:54:27;;;;;;;9.32;4.90;;;;;;;9.35;49.64;101320.69;4858292;29;20061;-54
2021/05/01 09:56:57;;;;;;;9.57;4.38;;;;;;;9.38;46.80;101324.84;4858441;29;20133;-54
2021/05/01 09:59:55;;;;;;;9.38;4.05;;;;;;;9.41;44.10;101318.91;4857781;29;20054;-53
2021/05/01 10:02:34;;;;;;;7.72;4.45;;;;;;;9.48;45.70;101321.47;4857441;29;20536;-56
2021/05/01 10:05:10;;;;;;;8.93;4.60;;;;;;;9.57;45.79;101311.78;4857898;29;20528;-54
2021/05/01 10:07:41;;;;;;;12.20;5.63;;;;;;;9.64;48.37;101317.88;4866038;29;20057;-54
2021/05/01 10:10:09;;;;;;;12.50;5.68;;;;;;;9.72;49.23;101320.19;4876170;29;20185;-55
2021/05/01 10:12:41;;;;;;;8.95;4.70;;;;;;;9.83;49.07;101310.25;4876620;29;20064;-51
2021/05/01 10:15:18;;;;;;;14.50;5.28;;;;;;;9.85;51.53;101316.28;4875364;29;20425;-53
2021/05/01 10:17:49;;;;;;;10.07;5.00;;;;;;;9.88;49.60;101318.50;4876737;29;20048;-55
2021/05/01 10:20:20;;;;;;;8.10;4.38;;;;;;;9.95;50.22;101310.16;4860937;29;20056;-55
2021/05/01 10:22:50;;;;;;;10.25;5.70;;;;;;;9.99;50.19;101316.75;4928819;29;20066;-54
2021/05/01 10:25:28;;;;;;;11.00;4.75;;;;;;;10.03;50.67;101320.63;4954031;28;20051;-53
2021/05/01 10:28:01;;;;;;;14.18;5.72;;;;;;;10.02;50.17;101311.59;4954555;28;20047;-56
2021/05/01 10:33:38;;;;;;;8.68;4.60;;;;;;;9.88;44.63;101317.69;4932798;29;20538;-55
2021/05/01 10:36:09;;;;;;;12.15;4.60;;;;;;;9.77;43.00;101312.09;4932350;29;20059;-55
2021/05/01 10:38:37;;;;;;;8.32;4.90;;;;;;;9.73;44.77;101326.44;4932866;29;20524;-54
2021/05/01 10:41:19;;;;;;;9.05;4.65;;;;;;;9.70;45.35;101321.53;4931183;29;20048;-53
2021/05/01 10:43:53;;;;;;;7.47;4.20;;;;;;;9.71;46.40;101315.00;4932124;29;20047;-53
2021/05/01 10:46:35;;;;;;;8.18;4.68;;;;;;;9.73;46.50;101326.44;4932582;29;20569;-55
2021/05/01 10:49:08;;;;;;;9.90;4.40;;;;;;;9.70;44.63;101327.78;4353544;29;10002496;-54
2021/05/01 10:51:43;;;;;;;7.30;4.40;;;;;;;9.70;45.17;101322.34;4930154;29;20672;-52
2021/05/01 10:54:16;;;;;;;9.50;4.85;;;;;;;9.75;44.75;101313.44;4929779;29;20072;-53
2021/05/01 10:56:46;;;;;;;7.72;4.38;;;;;;;9.86;44.70;101308.94;4930161;29;20134;-57
2021/05/01 10:59:24;;;;;;;8.48;3.92;;;;;;;9.93;45.46;101312.31;4928963;29;20051;-56
2021/05/01 11:01:53;;;;;;;9.00;4.20;;;;;;;9.94;45.09;101305.81;4929432;29;20064;-53
2021/05/01 11:04:25;;;;;;;10.40;4.53;;;;;;;10.04;44.08;101311.38;4929885;29;20047;-54
2021/05/01 11:07:08;;;;;;;8.80;4.47;;;;;;;10.06;43.77;101313.84;4930789;29;20107;-56
2021/05/01 11:09:41;;;;;;;8.68;5.03;;;;;;;10.14;44.87;101311.50;4947164;29;20051;-54
2021/05/01 11:12:12;;;;;;;11.35;5.20;;;;;;;10.21;45.32;101312.13;4951434;28;20090;-55
2021/05/01 11:14:49;;;;;;;9.23;4.93;;;;;;;10.24;45.57;101298.00;4949494;29;20573;-55
2021/05/01 11:17:23;;;;;;;15.15;5.18;;;;;;;10.28;45.33;101297.50;4951324;28;20055;-56
2021/05/01 11:20:04;;;;;;;8.02;4.43;;;;;;;10.38;46.30;101300.38;4951324;28;20081;-56
2021/05/01 11:22:34;;;;;;;7.63;3.47;;;;;;;10.48;47.38;101295.03;4951434;28;20055;-54
2021/05/01 11:25:13;;;;;;;9.38;4.50;;;;;;;10.38;45.51;101293.03;4950948;28;20059;-54
2021/05/01 11:27:41;;;;;;;7.68;4.18;;;;;;;10.32;45.56;101298.66;4938549;29;20039;-53
2021/05/01 11:30:10;;;;;;;9.98;4.93;;;;;;;10.25;45.58;101301.56;4951452;28;20494;-52
2021/05/01 11:32:38;;;;;;;8.75;4.93;;;;;;;10.17;44.98;101305.56;4951388;28;20035;-54
2021/05/01 11:35:08;;;;;;;8.05;4.32;;;;;;;10.15;45.41;101306.88;4950912;28;20039;-54
2021/05/01 11:37:44;;;;;;;9.70;5.10;;;;;;;10.14;45.03;101303.31;4950959;28;20560;-55
2021/05/01 11:40:14;;;;;;;8.13;5.07;;;;;;;10.14;44.98;101300.59;4949706;28;20051;-53